sensor_id;sensor_type;location;lat;lon;timestamp;pressure;altitude;pressure_sealevel;temperature;humidity
64876;BME280;51369;49.862;9.908;2022-09-13T00:01:41;97988.91;;;14.87;79.43
64876;BME280;51369;49.862;9.908;2022-09-13T00:04:07;97981.72;;;14.86;79.43
64876;BME280;51369;49.862;9.908;2022-09-13T00:06:32;97972.78;;;14.84;79.26
64876;BME280;51369;49.862;9.908;2022-09-13T00:08:58;97974.75;;;14.82;79.19
64876;BME280;51369;49.862;9.908;2022-09-13T00:11:26;97972.22;;;14.79;78.64
64876;BME280;51369;49.862;9.908;2022-09-13T00:13:53;97964.47;;;14.73;78.70
64876;BME280;51369;49.862;9.908;2022-09-13T00:16:21;97968.28;;;14.71;78.65
64876;BME280;51369;49.862;9.908;2022-09-13T00:18:47;97966.63;;;14.68;78.88
64876;BME280;51369;49.862;9.908;2022-09-13T00:21:15;97975.94;;;14.64;78.21
64876;BME280;51369;49.862;9.908;2022-09-13T00:23:49;97977.13;;;14.60;78.76
64876;BME280;51369;49.862;9.908;2022-09-13T00:26:18;97970.13;;;14.56;77.73
64876;BME280;51369;49.862;9.908;2022-09-13T00:28:43;97958.91;;;14.48;77.46
64876;BME280;51369;49.862;9.908;2022-09-13T00:31:10;97954.81;;;14.41;77.57
64876;BME280;51369;49.862;9.908;2022-09-13T00:33:36;97956.84;;;14.37;78.23
64876;BME280;51369;49.862;9.908;2022-09-13T00:36:06;97969.84;;;14.32;78.46
64876;BME280;51369;49.862;9.908;2022-09-13T00:38:37;97973.06;;;14.24;77.39
64876;BME280;51369;49.862;9.908;2022-09-13T00:41:04;97971.69;;;14.17;76.88
64876;BME280;51369;49.862;9.908;2022-09-13T00:46:12;97959.09;;;14.02;78.62
64876;BME280;51369;49.862;9.908;2022-09-13T00:48:41;97960.16;;;13.99;79.87
64876;BME280;51369;49.862;9.908;2022-09-13T00:51:07;97968.50;;;13.96;79.51
64876;BME280;51369;49.862;9.908;2022-09-13T00:53:38;97958.63;;;13.95;79.25
64876;BME280;51369;49.862;9.908;2022-09-13T00:56:26;97967.91;;;13.91;79.27
64876;BME280;51369;49.862;9.908;2022-09-13T00:58:59;97962.69;;;13.88;78.72
64876;BME280;51369;49.862;9.908;2022-09-13T01:01:32;97959.31;;;13.85;79.69
64876;BME280;51369;49.862;9.908;2022-09-13T01:04:01;97969.41;;;13.83;80.34
64876;BME280;51369;49.862;9.908;2022-09-13T01:06:28;97965.81;;;13.82;79.63
64876;BME280;51369;49.862;9.908;2022-09-13T01:08:55;97965.03;;;13.80;79.54
64876;BME280;51369;49.862;9.908;2022-09-13T01:14:15;97959.78;;;13.77;79.08
64876;BME280;51369;49.862;9.908;2022-09-13T01:16:42;97950.00;;;13.75;79.86
64876;BME280;51369;49.862;9.908;2022-09-13T01:19:08;97954.56;;;13.74;79.96
64876;BME280;51369;49.862;9.908;2022-09-13T01:30:19;97946.91;;;13.66;79.65
64876;BME280;51369;49.862;9.908;2022-09-13T01:41:17;97928.47;;;13.57;80.48
64876;BME280;51369;49.862;9.908;2022-09-13T01:44:08;97928.66;;;13.54;79.70
64876;BME280;51369;49.862;9.908;2022-09-13T01:46:48;97929.81;;;13.50;79.96
64876;BME280;51369;49.862;9.908;2022-09-13T01:52:00;97916.81;;;13.41;80.14
64876;BME280;51369;49.862;9.908;2022-09-13T01:54:36;97908.78;;;13.40;80.99
64876;BME280;51369;49.862;9.908;2022-09-13T01:57:15;97908.09;;;13.36;80.74
64876;BME280;51369;49.862;9.908;2022-09-13T01:59:52;97900.06;;;13.34;80.64
64876;BME280;51369;49.862;9.908;2022-09-13T02:02:45;97895.50;;;13.35;80.90
64876;BME280;51369;49.862;9.908;2022-09-13T02:05:21;97891.84;;;13.36;80.61
64876;BME280;51369;49.862;9.908;2022-09-13T02:07:54;97893.56;;;13.37;81.13
64876;BME280;51369;49.862;9.908;2022-09-13T02:10:29;97893.78;;;13.34;80.82
64876;BME280;51369;49.862;9.908;2022-09-13T02:12:58;97886.69;;;13.31;81.68
64876;BME280;51369;49.862;9.908;2022-09-13T02:15:36;97886.09;;;13.26;81.52
64876;BME280;51369;49.862;9.908;2022-09-13T02:18:07;97881.84;;;13.22;82.05
64876;BME280;51369;49.862;9.908;2022-09-13T02:20:42;97876.69;;;13.18;81.52
64876;BME280;51369;49.862;9.908;2022-09-13T02:23:12;97877.66;;;13.17;82.92
64876;BME280;51369;49.862;9.908;2022-09-13T02:25:40;97891.28;;;13.15;82.54
64876;BME280;51369;49.862;9.908;2022-09-13T02:28:09;97895.03;;;13.13;82.81
64876;BME280;51369;49.862;9.908;2022-09-13T02:30:38;97903.34;;;13.10;83.04
64876;BME280;51369;49.862;9.908;2022-09-13T02:33:12;97917.19;;;13.05;82.94
64876;BME280;51369;49.862;9.908;2022-09-13T02:36:01;97920.16;;;13.00;82.55
64876;BME280;51369;49.862;9.908;2022-09-13T02:38:43;97932.16;;;12.96;81.68
64876;BME280;51369;49.862;9.908;2022-09-13T02:41:36;97925.00;;;12.95;81.53
64876;BME280;51369;49.862;9.908;2022-09-13T02:44:11;97920.44;;;12.96;82.32
64876;BME280;51369;49.862;9.908;2022-09-13T02:47:16;97906.13;;;12.94;82.93
64876;BME280;51369;49.862;9.908;2022-09-13T02:52:36;97901.56;;;12.94;85.33
64876;BME280;51369;49.862;9.908;2022-09-13T02:55:40;97899.81;;;12.93;85.64
64876;BME280;51369;49.862;9.908;2022-09-13T03:01:09;97877.09;;;12.96;85.56
64876;BME280;51369;49.862;9.908;2022-09-13T03:03:34;97874.28;;;12.97;86.26
64876;BME280;51369;49.862;9.908;2022-09-13T03:06:00;97869.75;;;12.98;85.89
64876;BME280;51369;49.862;9.908;2022-09-13T03:08:27;97878.75;;;12.98;84.74
64876;BME280;51369;49.862;9.908;2022-09-13T03:16:27;97896.06;;;12.96;82.67
64876;BME280;51369;49.862;9.908;2022-09-13T03:19:09;97897.22;;;12.92;82.60
64876;BME280;51369;49.862;9.908;2022-09-13T03:22:23;97897.66;;;12.84;81.14
64876;BME280;51369;49.862;9.908;2022-09-13T03:30:09;97905.81;;;12.68;78.51
64876;BME280;51369;49.862;9.908;2022-09-13T03:38:10;97934.31;;;12.60;80.09
64876;BME280;51369;49.862;9.908;2022-09-13T03:40:55;97936.22;;;12.58;80.80
64876;BME280;51369;49.862;9.908;2022-09-13T03:43:35;97938.94;;;12.58;80.73
64876;BME280;51369;49.862;9.908;2022-09-13T03:46:08;97918.06;;;12.60;81.44
64876;BME280;51369;49.862;9.908;2022-09-13T03:48:36;97920.59;;;12.63;81.40
64876;BME280;51369;49.862;9.908;2022-09-13T03:51:04;97925.84;;;12.66;82.23
64876;BME280;51369;49.862;9.908;2022-09-13T03:53:33;97922.94;;;12.69;82.78
64876;BME280;51369;49.862;9.908;2022-09-13T03:56:00;97919.28;;;12.70;82.56
64876;BME280;51369;49.862;9.908;2022-09-13T03:58:25;97914.63;;;12.72;83.56
64876;BME280;51369;49.862;9.908;2022-09-13T04:00:51;97905.47;;;12.75;83.41
64876;BME280;51369;49.862;9.908;2022-09-13T04:03:18;97902.66;;;12.76;83.82
64876;BME280;51369;49.862;9.908;2022-09-13T04:05:44;97895.22;;;12.80;83.73
64876;BME280;51369;49.862;9.908;2022-09-13T04:08:10;97894.16;;;12.82;84.40
64876;BME280;51369;49.862;9.908;2022-09-13T04:10:36;97895.75;;;12.86;84.51
64876;BME280;51369;49.862;9.908;2022-09-13T04:13:02;97889.34;;;12.87;83.87
64876;BME280;51369;49.862;9.908;2022-09-13T04:15:28;97891.09;;;12.88;84.16
64876;BME280;51369;49.862;9.908;2022-09-13T04:17:55;97893.91;;;12.87;83.56
64876;BME280;51369;49.862;9.908;2022-09-13T04:20:21;97898.53;;;12.85;82.56
64876;BME280;51369;49.862;9.908;2022-09-13T04:22:53;97900.56;;;12.81;81.81
64876;BME280;51369;49.862;9.908;2022-09-13T04:25:20;97892.50;;;12.80;81.85
64876;BME280;51369;49.862;9.908;2022-09-13T04:27:47;97887.19;;;12.78;81.61
64876;BME280;51369;49.862;9.908;2022-09-13T04:30:13;97885.53;;;12.76;81.85
64876;BME280;51369;49.862;9.908;2022-09-13T04:32:41;97888.34;;;12.74;81.91
64876;BME280;51369;49.862;9.908;2022-09-13T04:35:07;97886.59;;;12.73;81.59
64876;BME280;51369;49.862;9.908;2022-09-13T04:37:33;97877.69;;;12.71;82.49
64876;BME280;51369;49.862;9.908;2022-09-13T04:39:58;97882.22;;;12.70;82.30
64876;BME280;51369;49.862;9.908;2022-09-13T04:42:24;97879.53;;;12.70;82.88
64876;BME280;51369;49.862;9.908;2022-09-13T04:44:50;97873.13;;;12.71;83.12
64876;BME280;51369;49.862;9.908;2022-09-13T04:47:17;97865.00;;;12.71;82.63
64876;BME280;51369;49.862;9.908;2022-09-13T04:49:43;97870.44;;;12.71;82.87
64876;BME280;51369;49.862;9.908;2022-09-13T04:52:08;97870.53;;;12.70;82.44
64876;BME280;51369;49.862;9.908;2022-09-13T04:54:34;97875.16;;;12.68;82.28
64876;BME280;51369;49.862;9.908;2022-09-13T04:56:59;97884.06;;;12.70;81.77
64876;BME280;51369;49.862;9.908;2022-09-13T04:59:25;97891.22;;;12.71;82.87
64876;BME280;51369;49.862;9.908;2022-09-13T05:01:51;97886.59;;;12.73;82.98
64876;BME280;51369;49.862;9.908;2022-09-13T05:04:16;97892.88;;;12.74;82.89
64876;BME280;51369;49.862;9.908;2022-09-13T05:06:41;97892.88;;;12.74;82.70
64876;BME280;51369;49.862;9.908;2022-09-13T05:09:11;97896.63;;;12.71;80.96
64876;BME280;51369;49.862;9.908;2022-09-13T05:11:37;97910.19;;;12.71;81.99
64876;BME280;51369;49.862;9.908;2022-09-13T05:14:03;97901.19;;;12.70;81.47
64876;BME280;51369;49.862;9.908;2022-09-13T05:16:31;97893.16;;;12.69;82.53
64876;BME280;51369;49.862;9.908;2022-09-13T05:18:57;97894.13;;;12.68;82.89
64876;BME280;51369;49.862;9.908;2022-09-13T05:21:23;97895.69;;;12.72;82.79
64876;BME280;51369;49.862;9.908;2022-09-13T05:23:53;97896.47;;;12.74;83.34
64876;BME280;51369;49.862;9.908;2022-09-13T05:26:20;97894.34;;;12.79;82.97
64876;BME280;51369;49.862;9.908;2022-09-13T05:28:46;97900.38;;;12.84;84.13
64876;BME280;51369;49.862;9.908;2022-09-13T05:31:20;97902.91;;;12.87;83.41
64876;BME280;51369;49.862;9.908;2022-09-13T05:33:50;97907.16;;;12.91;82.80
64876;BME280;51369;49.862;9.908;2022-09-13T05:36:16;97899.72;;;12.95;83.18
64876;BME280;51369;49.862;9.908;2022-09-13T05:38:42;97918.44;;;12.99;83.25
64876;BME280;51369;49.862;9.908;2022-09-13T05:41:08;97924.63;;;13.01;83.07
64876;BME280;51369;49.862;9.908;2022-09-13T05:43:35;97927.16;;;13.04;82.81
64876;BME280;51369;49.862;9.908;2022-09-13T05:46:10;97935.00;;;13.09;82.48
64876;BME280;51369;49.862;9.908;2022-09-13T05:48:36;97930.28;;;13.13;82.81
64876;BME280;51369;49.862;9.908;2022-09-13T05:51:07;97924.69;;;13.16;82.97
64876;BME280;51369;49.862;9.908;2022-09-13T05:53:33;97932.66;;;13.19;82.09
64876;BME280;51369;49.862;9.908;2022-09-13T05:55:59;97935.19;;;13.22;82.80
64876;BME280;51369;49.862;9.908;2022-09-13T05:58:25;97926.88;;;13.25;82.32
64876;BME280;51369;49.862;9.908;2022-09-13T06:00:55;97930.16;;;13.30;83.06
64876;BME280;51369;49.862;9.908;2022-09-13T06:03:21;97922.63;;;13.35;82.88
64876;BME280;51369;49.862;9.908;2022-09-13T06:05:47;97921.38;;;13.41;82.57
64876;BME280;51369;49.862;9.908;2022-09-13T06:08:13;97929.22;;;13.45;82.51
64876;BME280;51369;49.862;9.908;2022-09-13T06:10:38;97925.38;;;13.49;82.69
64876;BME280;51369;49.862;9.908;2022-09-13T06:13:04;97921.41;;;13.55;82.82
64876;BME280;51369;49.862;9.908;2022-09-13T06:15:29;97922.00;;;13.60;83.46
64876;BME280;51369;49.862;9.908;2022-09-13T06:17:55;97919.78;;;13.66;83.07
64876;BME280;51369;49.862;9.908;2022-09-13T06:20:20;97908.53;;;13.73;82.98
64876;BME280;51369;49.862;9.908;2022-09-13T06:22:47;97916.28;;;13.79;83.60
64876;BME280;51369;49.862;9.908;2022-09-13T06:25:12;97909.50;;;13.86;83.42
64876;BME280;51369;49.862;9.908;2022-09-13T06:27:38;97914.41;;;13.93;83.30
64876;BME280;51369;49.862;9.908;2022-09-13T06:30:04;97917.63;;;14.00;82.99
64876;BME280;51369;49.862;9.908;2022-09-13T06:32:29;97920.81;;;14.07;83.57
64876;BME280;51369;49.862;9.908;2022-09-13T06:34:55;97922.16;;;14.14;82.98
64876;BME280;51369;49.862;9.908;2022-09-13T06:37:20;97921.88;;;14.18;83.09
64876;BME280;51369;49.862;9.908;2022-09-13T06:39:46;97928.63;;;14.25;83.05
64876;BME280;51369;49.862;9.908;2022-09-13T06:42:11;97922.91;;;14.30;82.76
64876;BME280;51369;49.862;9.908;2022-09-13T06:44:40;97922.50;;;14.36;82.78
64876;BME280;51369;49.862;9.908;2022-09-13T06:47:05;97920.31;;;14.43;83.23
64876;BME280;51369;49.862;9.908;2022-09-13T06:49:31;97918.06;;;14.49;83.24
64876;BME280;51369;49.862;9.908;2022-09-13T06:51:56;97915.72;;;14.57;83.27
64876;BME280;51369;49.862;9.908;2022-09-13T06:54:22;97911.63;;;14.64;83.54
64876;BME280;51369;49.862;9.908;2022-09-13T06:56:47;97904.78;;;14.72;83.32
64876;BME280;51369;49.862;9.908;2022-09-13T06:59:13;97904.28;;;14.79;83.78
64876;BME280;51369;49.862;9.908;2022-09-13T07:01:41;97901.81;;;14.89;83.46
64876;BME280;51369;49.862;9.908;2022-09-13T07:04:13;97908.47;;;14.97;83.51
64876;BME280;51369;49.862;9.908;2022-09-13T07:06:42;97908.63;;;15.09;83.33
64876;BME280;51369;49.862;9.908;2022-09-13T07:09:11;97907.13;;;15.17;83.38
64876;BME280;51369;49.862;9.908;2022-09-13T07:11:38;97905.72;;;15.24;83.02
64876;BME280;51369;49.862;9.908;2022-09-13T07:14:05;97906.81;;;15.35;83.40
64876;BME280;51369;49.862;9.908;2022-09-13T07:16:34;97905.44;;;15.42;82.39
64876;BME280;51369;49.862;9.908;2022-09-13T07:19:03;97911.97;;;15.52;82.32
64876;BME280;51369;49.862;9.908;2022-09-13T07:21:31;97896.84;;;15.60;82.70
64876;BME280;51369;49.862;9.908;2022-09-13T07:23:57;97907.06;;;15.70;82.41
64876;BME280;51369;49.862;9.908;2022-09-13T07:26:24;97905.66;;;15.77;82.02
64876;BME280;51369;49.862;9.908;2022-09-13T07:28:53;97901.31;;;15.87;82.01
64876;BME280;51369;49.862;9.908;2022-09-13T07:31:32;97900.44;;;15.99;82.00
64876;BME280;51369;49.862;9.908;2022-09-13T07:34:02;97906.84;;;16.11;81.70
64876;BME280;51369;49.862;9.908;2022-09-13T07:36:29;97906.94;;;16.22;81.34
64876;BME280;51369;49.862;9.908;2022-09-13T07:38:56;97921.94;;;16.27;81.03
64876;BME280;51369;49.862;9.908;2022-09-13T07:41:24;97920.63;;;16.33;81.25
64876;BME280;51369;49.862;9.908;2022-09-13T07:43:50;97913.00;;;16.38;80.83
64876;BME280;51369;49.862;9.908;2022-09-13T07:46:18;97924.66;;;16.40;80.42
64876;BME280;51369;49.862;9.908;2022-09-13T07:48:46;97929.75;;;16.45;79.73
64876;BME280;51369;49.862;9.908;2022-09-13T07:51:16;97936.63;;;16.50;79.79
64876;BME280;51369;49.862;9.908;2022-09-13T07:53:44;97925.25;;;16.56;80.38
64876;BME280;51369;49.862;9.908;2022-09-13T07:56:22;97932.22;;;16.60;80.64
64876;BME280;51369;49.862;9.908;2022-09-13T07:58:49;97926.25;;;16.68;80.54
64876;BME280;51369;49.862;9.908;2022-09-13T08:01:23;97919.34;;;16.75;80.52
64876;BME280;51369;49.862;9.908;2022-09-13T08:03:54;97911.59;;;16.82;80.12
64876;BME280;51369;49.862;9.908;2022-09-13T08:06:20;97912.97;;;16.87;79.95
64876;BME280;51369;49.862;9.908;2022-09-13T08:08:46;97925.38;;;16.91;79.58
64876;BME280;51369;49.862;9.908;2022-09-13T08:11:48;97932.75;;;17.02;79.00
64876;BME280;51369;49.862;9.908;2022-09-13T08:14:15;97937.41;;;17.13;79.00
64876;BME280;51369;49.862;9.908;2022-09-13T08:16:41;97946.75;;;17.21;78.51
64876;BME280;51369;49.862;9.908;2022-09-13T08:19:11;97945.91;;;17.32;78.22
64876;BME280;51369;49.862;9.908;2022-09-13T08:21:38;97953.25;;;17.43;78.03
64876;BME280;51369;49.862;9.908;2022-09-13T08:24:06;97949.44;;;17.56;78.26
64876;BME280;51369;49.862;9.908;2022-09-13T08:26:34;97946.66;;;17.69;77.61
64876;BME280;51369;49.862;9.908;2022-09-13T08:29:03;97949.31;;;17.82;76.99
64876;BME280;51369;49.862;9.908;2022-09-13T08:31:29;97947.47;;;17.94;76.39
64876;BME280;51369;49.862;9.908;2022-09-13T08:33:55;97945.63;;;18.05;76.29
64876;BME280;51369;49.862;9.908;2022-09-13T08:36:23;97949.22;;;18.17;76.31
64876;BME280;51369;49.862;9.908;2022-09-13T08:38:54;97943.78;;;18.28;76.33
64876;BME280;51369;49.862;9.908;2022-09-13T08:44:04;97941.91;;;18.51;74.74
64876;BME280;51369;49.862;9.908;2022-09-13T08:46:41;97928.59;;;18.58;74.96
64876;BME280;51369;49.862;9.908;2022-09-13T08:49:14;97918.06;;;18.64;74.60
64876;BME280;51369;49.862;9.908;2022-09-13T08:51:47;97912.84;;;18.72;74.46
64876;BME280;51369;49.862;9.908;2022-09-13T08:54:15;97918.66;;;18.79;73.87
64876;BME280;51369;49.862;9.908;2022-09-13T08:56:58;97905.59;;;18.82;73.71
64876;BME280;51369;49.862;9.908;2022-09-13T08:59:44;97892.66;;;18.84;73.86
64876;BME280;51369;49.862;9.908;2022-09-13T09:07:33;97888.81;;;18.87;74.44
64876;BME280;51369;49.862;9.908;2022-09-13T09:10:14;97894.53;;;18.84;74.25
64876;BME280;51369;49.862;9.908;2022-09-13T09:13:02;97901.00;;;18.83;74.16
64876;BME280;51369;49.862;9.908;2022-09-13T09:15:34;97901.72;;;18.85;73.75
64876;BME280;51369;49.862;9.908;2022-09-13T09:18:04;97893.53;;;18.85;73.62
64876;BME280;51369;49.862;9.908;2022-09-13T09:20:48;97895.13;;;18.88;73.66
64876;BME280;51369;49.862;9.908;2022-09-13T09:23:50;97877.72;;;18.89;74.39
64876;BME280;51369;49.862;9.908;2022-09-13T09:26:21;97884.44;;;18.96;74.16
64876;BME280;51369;49.862;9.908;2022-09-13T09:28:54;97900.44;;;19.00;73.26
64876;BME280;51369;49.862;9.908;2022-09-13T09:31:51;97900.94;;;19.05;72.91
64876;BME280;51369;49.862;9.908;2022-09-13T09:37:39;97895.94;;;19.31;71.38
64876;BME280;51369;49.862;9.908;2022-09-13T09:40:11;97896.88;;;19.41;71.87
64876;BME280;51369;49.862;9.908;2022-09-13T09:42:45;97893.34;;;19.50;70.48
64876;BME280;51369;49.862;9.908;2022-09-13T09:45:25;97899.53;;;19.64;69.79
64876;BME280;51369;49.862;9.908;2022-09-13T09:47:52;97898.59;;;19.74;69.19
64876;BME280;51369;49.862;9.908;2022-09-13T09:50:25;97887.56;;;19.86;69.61
64876;BME280;51369;49.862;9.908;2022-09-13T09:53:06;97885.63;;;19.97;68.56
64876;BME280;51369;49.862;9.908;2022-09-13T09:55:48;97872.69;;;20.09;68.36
64876;BME280;51369;49.862;9.908;2022-09-13T09:58:16;97872.47;;;20.22;67.36
64876;BME280;51369;49.862;9.908;2022-09-13T10:00:55;97860.25;;;20.35;67.91
64876;BME280;51369;49.862;9.908;2022-09-13T10:03:29;97866.72;;;20.55;67.89
64876;BME280;51369;49.862;9.908;2022-09-13T10:06:22;97868.19;;;20.69;66.96
64876;BME280;51369;49.862;9.908;2022-09-13T10:15:02;97863.59;;;21.18;66.18
64876;BME280;51369;49.862;9.908;2022-09-13T10:17:25;97868.84;;;21.30;64.87
64876;BME280;51369;49.862;9.908;2022-09-13T10:20:17;97875.34;;;21.39;65.17
64876;BME280;51369;49.862;9.908;2022-09-13T10:22:44;97862.31;;;21.51;65.33
64876;BME280;51369;49.862;9.908;2022-09-13T10:25:20;97861.44;;;21.60;64.87
64876;BME280;51369;49.862;9.908;2022-09-13T10:27:49;97857.81;;;21.69;65.32
64876;BME280;51369;49.862;9.908;2022-09-13T10:30:37;97868.06;;;21.76;65.68
64876;BME280;51369;49.862;9.908;2022-09-13T10:33:05;97867.31;;;21.84;65.20
64876;BME280;51369;49.862;9.908;2022-09-13T10:35:37;97866.00;;;21.88;65.11
64876;BME280;51369;49.862;9.908;2022-09-13T10:38:03;97875.84;;;21.91;65.17
64876;BME280;51369;49.862;9.908;2022-09-13T10:40:30;97876.84;;;21.90;66.14
64876;BME280;51369;49.862;9.908;2022-09-13T10:43:04;97879.91;;;21.87;66.06
64876;BME280;51369;49.862;9.908;2022-09-13T10:45:36;97886.72;;;21.83;66.68
64876;BME280;51369;49.862;9.908;2022-09-13T10:48:09;97878.34;;;21.74;67.00
64876;BME280;51369;49.862;9.908;2022-09-13T10:50:37;97873.56;;;21.67;66.69
64876;BME280;51369;49.862;9.908;2022-09-13T10:53:03;97888.91;;;21.60;67.30
64876;BME280;51369;49.862;9.908;2022-09-13T11:03:46;97904.09;;;21.25;68.39
64876;BME280;51369;49.862;9.908;2022-09-13T11:12:11;97890.59;;;21.03;69.79
64876;BME280;51369;49.862;9.908;2022-09-13T11:25:28;97876.44;;;20.78;72.15
64876;BME280;51369;49.862;9.908;2022-09-13T11:34:07;97880.41;;;20.55;72.73
64876;BME280;51369;49.862;9.908;2022-09-13T11:37:14;97879.69;;;20.53;73.58
64876;BME280;51369;49.862;9.908;2022-09-13T11:42:32;97899.91;;;20.52;74.02
64876;BME280;51369;49.862;9.908;2022-09-13T11:50:29;97887.50;;;20.58;74.01
64876;BME280;51369;49.862;9.908;2022-09-13T11:56:02;97885.50;;;20.69;74.71
64876;BME280;51369;49.862;9.908;2022-09-13T11:58:52;97877.88;;;20.73;73.58
64876;BME280;51369;49.862;9.908;2022-09-13T12:01:29;97872.69;;;20.79;73.67
64876;BME280;51369;49.862;9.908;2022-09-13T12:04:09;97872.09;;;20.86;73.54
64876;BME280;51369;49.862;9.908;2022-09-13T12:06:41;97877.72;;;20.94;73.56
64876;BME280;51369;49.862;9.908;2022-09-13T12:09:14;97871.81;;;20.98;73.22
64876;BME280;51369;49.862;9.908;2022-09-13T12:14:46;97872.13;;;21.15;72.79
64876;BME280;51369;49.862;9.908;2022-09-13T12:19:50;97853.06;;;21.32;72.30
64876;BME280;51369;49.862;9.908;2022-09-13T12:22:21;97854.50;;;21.46;72.32
64876;BME280;51369;49.862;9.908;2022-09-13T12:24:50;97844.22;;;21.58;71.43
64876;BME280;51369;49.862;9.908;2022-09-13T12:27:30;97844.19;;;21.77;71.53
64876;BME280;51369;49.862;9.908;2022-09-13T12:32:31;97845.94;;;22.25;71.02
64876;BME280;51369;49.862;9.908;2022-09-13T12:35:04;97842.09;;;22.45;69.72
64876;BME280;51369;49.862;9.908;2022-09-13T12:52:15;97816.16;;;23.28;64.31
64876;BME280;51369;49.862;9.908;2022-09-13T12:57:53;97787.91;;;23.09;65.96
64876;BME280;51369;49.862;9.908;2022-09-13T13:00:33;97802.31;;;23.02;67.29
64876;BME280;51369;49.862;9.908;2022-09-13T13:05:49;97813.56;;;22.91;68.25
64876;BME280;51369;49.862;9.908;2022-09-13T13:11:07;97806.78;;;22.86;67.29
64876;BME280;51369;49.862;9.908;2022-09-13T13:13:35;97802.41;;;22.93;68.18
64876;BME280;51369;49.862;9.908;2022-09-13T13:16:21;97801.59;;;23.00;67.21
64876;BME280;51369;49.862;9.908;2022-09-13T13:18:49;97801.38;;;23.12;65.48
64876;BME280;51369;49.862;9.908;2022-09-13T13:21:39;97804.44;;;23.26;65.77
64876;BME280;51369;49.862;9.908;2022-09-13T13:29:21;97790.38;;;23.73;64.71
64876;BME280;51369;49.862;9.908;2022-09-13T13:36:48;97778.25;;;23.92;62.72
64876;BME280;51369;49.862;9.908;2022-09-13T13:46:48;97787.34;;;23.84;61.36
64876;BME280;51369;49.862;9.908;2022-09-13T13:57:43;97780.09;;;23.83;61.16
64876;BME280;51369;49.862;9.908;2022-09-13T14:00:26;97778.91;;;23.86;60.51
64876;BME280;51369;49.862;9.908;2022-09-13T14:03:05;97782.34;;;23.88;61.48
64876;BME280;51369;49.862;9.908;2022-09-13T14:05:51;97773.91;;;23.89;62.09
64876;BME280;51369;49.862;9.908;2022-09-13T14:16:26;97765.56;;;24.07;60.87
64876;BME280;51369;49.862;9.908;2022-09-13T14:18:59;97757.34;;;24.15;61.32
64876;BME280;51369;49.862;9.908;2022-09-13T14:21:29;97763.38;;;24.19;61.55
64876;BME280;51369;49.862;9.908;2022-09-13T14:24:12;97765.97;;;24.20;61.20
64876;BME280;51369;49.862;9.908;2022-09-13T14:26:40;97765.81;;;24.22;61.35
64876;BME280;51369;49.862;9.908;2022-09-13T14:29:07;97762.34;;;24.20;61.49
64876;BME280;51369;49.862;9.908;2022-09-13T14:31:33;97753.72;;;24.15;60.87
64876;BME280;51369;49.862;9.908;2022-09-13T14:33:59;97760.59;;;24.11;60.67
64876;BME280;51369;49.862;9.908;2022-09-13T14:36:25;97759.03;;;24.08;61.90
64876;BME280;51369;49.862;9.908;2022-09-13T14:39:00;97756.94;;;24.02;61.44
64876;BME280;51369;49.862;9.908;2022-09-13T14:41:32;97749.84;;;23.99;62.38
64876;BME280;51369;49.862;9.908;2022-09-13T14:46:44;97744.19;;;24.01;61.70
64876;BME280;51369;49.862;9.908;2022-09-13T14:49:19;97743.31;;;24.00;61.54
64876;BME280;51369;49.862;9.908;2022-09-13T14:51:57;97742.97;;;24.04;61.35
64876;BME280;51369;49.862;9.908;2022-09-13T14:54:42;97741.78;;;24.06;61.60
64876;BME280;51369;49.862;9.908;2022-09-13T14:57:19;97741.13;;;24.12;61.52
64876;BME280;51369;49.862;9.908;2022-09-13T14:59:49;97733.22;;;24.17;61.95
64876;BME280;51369;49.862;9.908;2022-09-13T15:02:19;97725.47;;;24.21;61.31
64876;BME280;51369;49.862;9.908;2022-09-13T15:05:06;97727.03;;;24.23;61.65
64876;BME280;51369;49.862;9.908;2022-09-13T15:07:37;97721.88;;;24.28;59.98
64876;BME280;51369;49.862;9.908;2022-09-13T15:12:33;97709.66;;;24.31;60.49
64876;BME280;51369;49.862;9.908;2022-09-13T15:20:30;97693.06;;;24.23;61.22
64876;BME280;51369;49.862;9.908;2022-09-13T15:23:15;97698.75;;;24.21;61.44
64876;BME280;51369;49.862;9.908;2022-09-13T15:25:46;97688.06;;;24.18;61.51
64876;BME280;51369;49.862;9.908;2022-09-13T15:28:20;97691.16;;;24.15;61.64
64876;BME280;51369;49.862;9.908;2022-09-13T15:30:46;97698.88;;;24.12;61.34
64876;BME280;51369;49.862;9.908;2022-09-13T15:33:38;97698.16;;;24.01;61.33
64876;BME280;51369;49.862;9.908;2022-09-13T15:41:37;97704.78;;;23.83;60.93
64876;BME280;51369;49.862;9.908;2022-09-13T15:44:05;97700.97;;;23.76;61.50
64876;BME280;51369;49.862;9.908;2022-09-13T15:46:31;97699.34;;;23.65;63.13
64876;BME280;51369;49.862;9.908;2022-09-13T15:49:02;97701.50;;;23.53;63.81
64876;BME280;51369;49.862;9.908;2022-09-13T15:51:30;97696.59;;;23.39;64.87
64876;BME280;51369;49.862;9.908;2022-09-13T15:53:56;97696.63;;;23.21;65.37
64876;BME280;51369;49.862;9.908;2022-09-13T15:56:43;97698.56;;;23.03;65.88
64876;BME280;51369;49.862;9.908;2022-09-13T15:59:14;97696.91;;;22.92;66.14
64876;BME280;51369;49.862;9.908;2022-09-13T16:01:41;97691.66;;;22.81;66.99
64876;BME280;51369;49.862;9.908;2022-09-13T16:04:06;97676.22;;;22.70;66.78
64876;BME280;51369;49.862;9.908;2022-09-13T16:06:32;97674.56;;;22.60;67.60
64876;BME280;51369;49.862;9.908;2022-09-13T16:08:58;97677.75;;;22.47;67.49
64876;BME280;51369;49.862;9.908;2022-09-13T16:11:26;97668.00;;;22.35;68.10
64876;BME280;51369;49.862;9.908;2022-09-13T16:13:52;97669.97;;;22.25;68.67
64876;BME280;51369;49.862;9.908;2022-09-13T16:16:17;97682.75;;;22.16;68.90
64876;BME280;51369;49.862;9.908;2022-09-13T16:18:43;97680.78;;;22.08;68.54
64876;BME280;51369;49.862;9.908;2022-09-13T16:21:08;97676.16;;;21.99;68.61
64876;BME280;51369;49.862;9.908;2022-09-13T16:23:34;97682.28;;;21.93;68.89
64876;BME280;51369;49.862;9.908;2022-09-13T16:26:00;97687.53;;;21.87;70.33
64876;BME280;51369;49.862;9.908;2022-09-13T16:28:27;97682.63;;;21.81;71.33
64876;BME280;51369;49.862;9.908;2022-09-13T16:30:53;97676.03;;;21.73;71.39